createdAt,value
2024-05-09T00:00:45.550Z,102170.22
2024-05-09T00:03:12.788Z,102167.56
2024-05-09T00:05:44.182Z,102170.25
2024-05-09T00:08:12.110Z,102166.69
2024-05-09T00:10:40.719Z,102170.25
2024-05-09T00:13:09.593Z,102175.63
2024-05-09T00:15:37.231Z,102179.22
2024-05-09T00:18:05.826Z,102166.72
2024-05-09T00:20:38.626Z,102170.28
2024-05-09T00:23:10.582Z,102169.41
2024-05-09T00:25:38.411Z,102172.09
2024-05-09T00:28:06.125Z,102172.09
2024-05-09T00:30:35.946Z,102172.09
2024-05-09T00:33:06.316Z,102178.34
2024-05-09T00:35:34.795Z,102161.41
2024-05-09T00:38:02.055Z,102166.78
2024-05-09T00:40:41.500Z,102169.44
2024-05-09T00:43:12.520Z,102168.56
2024-05-09T00:45:40.517Z,102162.34
2024-05-09T00:48:09.566Z,102174.78
2024-05-09T00:50:41.332Z,102169.47
2024-05-09T00:53:11.764Z,102162.34
2024-05-09T00:55:40.095Z,102178.41
2024-05-09T00:58:10.835Z,102168.53
2024-05-09T01:00:40.409Z,102173.88
2024-05-09T01:03:13.601Z,102167.66
2024-05-09T01:05:42.584Z,102173.88
2024-05-09T01:08:10.885Z,102173.88
2024-05-09T01:10:38.342Z,102172.09
2024-05-09T01:13:06.596Z,102172.09
2024-05-09T01:15:35.160Z,102173.88
2024-05-09T01:18:11.675Z,102162.28
2024-05-09T01:20:42.987Z,102167.66
2024-05-09T01:23:14.184Z,102161.38
2024-05-09T01:25:43.014Z,102156.06
2024-05-09T01:28:10.059Z,102164.94
2024-05-09T01:30:37.972Z,102167.63
2024-05-09T01:33:08.285Z,102163.16
2024-05-09T01:35:37.125Z,102162.28
2024-05-09T01:38:04.655Z,102161.41
2024-05-09T01:40:37.488Z,102154.22
2024-05-09T01:43:11.374Z,102157.78
2024-05-09T01:45:40.228Z,102160.47
2024-05-09T01:48:08.582Z,102157.81
2024-05-09T01:50:40.135Z,102157.78
2024-05-09T01:53:11.026Z,102159.56
2024-05-09T01:55:38.784Z,102163.97
2024-05-09T01:58:05.852Z,102158.63
2024-05-09T02:00:39.179Z,102158.59
2024-05-09T02:03:16.029Z,102162.19
2024-05-09T02:05:47.061Z,102158.59
2024-05-09T02:08:19.778Z,102162.13
2024-05-09T02:10:48.654Z,102168.34
2024-05-09T02:13:16.654Z,102168.31
2024-05-09T02:15:44.212Z,102171.84
2024-05-09T02:18:11.749Z,102162.94
2024-05-09T02:20:41.484Z,102171.81
2024-05-09T02:23:09.799Z,102162.03
2024-05-09T02:25:36.850Z,102171.78
2024-05-09T02:28:03.902Z,102171.78
2024-05-09T02:30:39.254Z,102170.00
2024-05-09T02:33:11.412Z,102178.00
2024-05-09T02:35:40.556Z,102180.63
2024-05-09T02:38:09.339Z,102169.94
2024-05-09T02:40:38.756Z,102159.25
2024-05-09T02:43:10.525Z,102166.34
2024-05-09T02:45:39.575Z,102171.69
2024-05-09T02:48:07.583Z,102163.66
2024-05-09T02:50:38.984Z,102176.13
2024-05-09T02:53:08.780Z,102159.22
2024-05-09T02:55:36.506Z,102173.41
2024-05-09T02:58:03.493Z,102168.03
2024-05-09T03:00:38.214Z,102169.81
2024-05-09T03:03:10.107Z,102169.81
2024-05-09T03:05:40.405Z,102172.44
2024-05-09T03:08:07.817Z,102175.09
2024-05-09T03:10:37.121Z,102166.19
2024-05-09T03:13:11.703Z,102175.06
2024-05-09T03:15:38.863Z,102170.59
2024-05-09T03:18:07.160Z,102167.91
2024-05-09T03:20:36.017Z,102167.91
2024-05-09T03:23:05.690Z,102166.97
2024-05-09T03:25:33.475Z,102161.66
2024-05-09T03:28:00.519Z,102164.28
2024-05-09T03:30:38.591Z,102162.50
2024-05-09T03:33:15.423Z,102161.59
2024-05-09T03:35:46.384Z,102153.56
2024-05-09T03:38:13.607Z,102163.31
2024-05-09T03:40:49.516Z,102164.22
2024-05-09T03:43:17.843Z,102166.84
2024-05-09T03:45:46.735Z,102165.94
2024-05-09T03:48:13.855Z,102162.34
2024-05-09T03:50:41.379Z,102167.66
2024-05-09T03:53:11.866Z,102166.78
2024-05-09T03:55:39.115Z,102165.84
2024-05-09T03:58:09.168Z,102168.53
2024-05-09T04:00:39.299Z,102162.31
2024-05-09T04:03:10.271Z,102172.06
2024-05-09T04:05:44.447Z,102169.38
2024-05-09T04:08:11.920Z,102169.34
2024-05-09T04:10:39.086Z,102170.25
2024-05-09T04:13:06.067Z,102166.69
2024-05-09T04:15:33.100Z,102167.53
2024-05-09T04:18:01.022Z,102163.13
2024-05-09T04:20:36.617Z,102171.09
2024-05-09T04:23:08.643Z,102159.53
2024-05-09T04:25:36.358Z,102173.78
2024-05-09T04:28:03.612Z,102169.31
2024-05-09T04:30:37.255Z,102176.44
2024-05-09T04:33:09.530Z,102173.78
2024-05-09T04:35:38.959Z,102178.22
2024-05-09T04:38:06.377Z,102172.00
2024-05-09T04:40:36.116Z,102172.91
2024-05-09T04:43:06.054Z,102175.59
2024-05-09T04:45:33.471Z,102176.47
2024-05-09T04:48:01.039Z,102171.16
2024-05-09T04:50:36.000Z,102173.81
2024-05-09T04:53:07.415Z,102173.84
2024-05-09T04:55:35.800Z,102173.00
2024-05-09T04:58:02.714Z,102170.38
2024-05-09T05:00:35.928Z,102172.16
2024-05-09T05:03:08.006Z,102175.75
2024-05-09T05:05:38.130Z,102187.34
2024-05-09T05:08:06.046Z,102179.41
2024-05-09T05:10:36.309Z,102178.56
2024-05-09T05:13:18.350Z,102182.16
2024-05-09T05:15:56.763Z,102181.28
2024-05-09T05:18:26.203Z,102173.31
2024-05-09T05:20:54.688Z,102176.00
2024-05-09T05:23:23.093Z,102184.91
2024-05-09T05:25:53.093Z,102176.94
2024-05-09T05:28:20.868Z,102180.50
2024-05-09T05:30:47.922Z,102175.22
2024-05-09T05:33:17.987Z,102173.44
2024-05-09T05:35:45.446Z,102167.19
2024-05-09T05:38:12.491Z,102171.69
2024-05-09T05:40:40.719Z,102187.72
2024-05-09T05:43:15.487Z,102181.50
2024-05-09T05:45:42.406Z,102186.84
2024-05-09T05:48:09.916Z,102186.00
2024-05-09T05:50:38.371Z,102191.34
2024-05-09T05:53:08.111Z,102190.47
2024-05-09T05:55:36.804Z,102194.06
2024-05-09T05:58:03.904Z,102199.44
2024-05-09T06:00:38.106Z,102200.34
2024-05-09T06:03:08.189Z,102198.63
2024-05-09T06:05:37.011Z,102200.44
2024-05-09T06:08:04.669Z,102196.91
2024-05-09T06:10:38.070Z,102196.91
2024-05-09T06:13:08.834Z,102192.47
2024-05-09T06:15:35.743Z,102196.03
2024-05-09T06:18:06.613Z,102193.38
2024-05-09T06:20:36.721Z,102201.44
2024-05-09T06:23:06.686Z,102192.53
2024-05-09T06:25:34.993Z,102194.31
2024-05-09T06:28:02.398Z,102200.56
2024-05-09T06:30:38.002Z,102197.91
2024-05-09T06:33:09.098Z,102199.69
2024-05-09T06:35:37.210Z,102191.72
2024-05-09T06:38:04.705Z,102192.59
2024-05-09T06:40:37.892Z,102191.72
2024-05-09T06:43:18.474Z,102193.50
2024-05-09T06:45:53.045Z,102184.59
2024-05-09T06:48:21.481Z,102186.38
2024-05-09T06:50:49.307Z,102191.69
2024-05-09T06:53:18.016Z,102197.06
2024-05-09T06:55:45.138Z,102190.84
2024-05-09T06:58:12.184Z,102192.63
2024-05-09T07:00:41.356Z,102190.84
2024-05-09T07:03:16.668Z,102193.53
2024-05-09T07:05:46.508Z,102188.16
2024-05-09T07:08:14.556Z,102179.25
2024-05-09T07:10:41.935Z,102181.91
2024-05-09T07:13:14.786Z,102189.91
2024-05-09T07:15:42.803Z,102189.00
2024-05-09T07:18:15.357Z,102196.09
2024-05-09T07:20:42.797Z,102192.53
2024-05-09T07:23:10.693Z,102180.94
2024-05-09T07:25:38.374Z,102177.31
2024-05-09T07:28:05.666Z,102175.50
2024-05-09T07:30:34.518Z,102171.91
2024-05-09T07:33:03.564Z,102177.28
2024-05-09T07:35:31.315Z,102169.25
2024-05-09T07:37:58.664Z,102173.69
2024-05-09T07:40:33.107Z,102174.56
2024-05-09T07:43:07.820Z,102178.97
2024-05-09T07:52:32.534Z,102171.75
2024-05-09T07:55:55.502Z,102177.00
2024-05-09T07:58:27.015Z,102175.19
2024-05-09T08:00:54.639Z,102169.78
2024-05-09T08:03:22.490Z,102176.00
2024-05-09T08:05:49.602Z,102168.81
2024-05-09T08:08:16.681Z,102173.25
2024-05-09T08:10:43.822Z,102162.53
2024-05-09T08:13:10.942Z,102166.06
2024-05-09T08:15:38.147Z,102162.47
2024-05-09T08:18:09.735Z,102161.53
2024-05-09T08:20:41.681Z,102153.44
2024-05-09T08:23:08.874Z,102156.09
2024-05-09T08:25:35.829Z,102151.53
2024-05-09T08:28:05.209Z,102146.97
2024-05-09T08:30:36.908Z,102149.56
2024-05-09T08:33:06.394Z,102153.09
2024-05-09T08:35:34.393Z,102152.09
2024-05-09T08:38:03.393Z,102152.94
2024-05-09T08:40:35.583Z,102148.38
2024-05-09T08:43:09.496Z,102147.38
2024-05-09T08:45:38.954Z,102152.75
2024-05-09T08:48:08.846Z,102147.28
2024-05-09T08:50:40.581Z,102140.09
2024-05-09T08:53:08.756Z,102144.44
2024-05-09T08:55:40.287Z,102139.88
2024-05-09T08:58:16.088Z,102140.69
2024-05-09T09:00:45.292Z,102142.44
2024-05-09T09:03:18.103Z,102150.44
2024-05-09T09:06:20.253Z,102146.78
2024-05-09T09:08:48.700Z,102138.72
2024-05-09T09:11:15.642Z,102147.56
2024-05-09T09:13:42.605Z,102156.44
2024-05-09T09:16:09.545Z,102150.09
2024-05-09T09:18:36.751Z,102142.88
2024-05-09T09:21:03.893Z,102149.09
2024-05-09T09:23:30.913Z,102150.88
2024-05-09T09:26:01.142Z,102148.13
2024-05-09T09:28:28.228Z,102146.31
2024-05-09T09:31:02.911Z,102144.47
2024-05-09T09:33:31.502Z,102148.88
2024-05-09T09:35:58.706Z,102150.56
2024-05-09T09:38:30.923Z,102147.84
2024-05-09T09:41:00.022Z,102143.38
2024-05-09T09:43:27.798Z,102140.63
2024-05-09T09:45:59.719Z,102138.75
2024-05-09T09:48:27.324Z,102142.22
2024-05-09T09:50:55.430Z,102137.63
2024-05-09T09:53:23.922Z,102134.88
2024-05-09T09:55:53.128Z,102129.34
2024-05-09T09:58:20.867Z,102126.63
2024-05-09T10:00:48.136Z,102126.50
2024-05-09T10:03:15.219Z,102115.66
2024-05-09T10:05:45.352Z,102126.31
2024-05-09T10:08:15.834Z,102122.63
2024-05-09T10:10:47.572Z,102115.38
2024-05-09T10:13:15.531Z,102117.09
2024-05-09T10:15:53.983Z,102112.53
2024-05-09T10:18:27.111Z,102112.53
2024-05-09T10:20:56.400Z,102106.16
2024-05-09T10:23:32.194Z,102101.50
2024-05-09T10:26:05.185Z,102097.78
2024-05-09T10:28:35.684Z,102099.44
2024-05-09T10:31:15.515Z,102093.00
2024-05-09T10:33:51.225Z,102086.56
2024-05-09T10:36:24.588Z,102094.56
2024-05-09T10:38:53.977Z,102093.59
2024-05-09T10:41:22.678Z,102089.91
2024-05-09T10:43:50.855Z,102088.06
2024-05-09T10:46:21.496Z,102087.88
2024-05-09T10:48:49.057Z,102091.28
2024-05-09T10:51:19.159Z,102081.22
2024-05-09T10:53:48.018Z,102080.22
2024-05-09T10:56:15.823Z,102082.75
2024-05-09T10:58:43.032Z,102074.50
2024-05-09T11:01:10.887Z,102078.78
2024-05-09T11:03:39.032Z,102062.38
2024-05-09T11:06:06.943Z,102063.97
2024-05-09T11:08:35.215Z,102057.44
2024-05-09T11:11:06.741Z,102057.22
2024-05-09T11:13:36.172Z,102056.06
2024-05-09T11:16:04.881Z,102048.53
2024-05-09T11:18:36.544Z,102054.47
2024-05-09T11:21:13.466Z,102050.59
2024-05-09T11:23:41.046Z,102048.53
2024-05-09T11:26:09.067Z,102053.81
2024-05-09T11:28:36.185Z,102043.88
2024-05-09T11:31:08.716Z,102042.06
2024-05-09T11:33:42.067Z,102035.72
2024-05-09T11:36:09.589Z,102041.13
2024-05-09T11:38:36.580Z,102030.56
2024-05-09T11:41:05.118Z,102036.97
2024-05-09T11:43:32.632Z,102031.75
2024-05-09T11:46:00.354Z,102029.09
2024-05-09T11:48:27.884Z,102023.72
2024-05-09T11:50:55.582Z,102025.28
2024-05-09T11:53:22.682Z,102017.84
2024-05-09T11:55:49.784Z,102021.19
2024-05-09T11:58:18.150Z,102011.97
2024-05-09T12:00:46.568Z,102013.44
2024-05-09T12:03:13.985Z,102005.97
2024-05-09T12:05:41.347Z,102009.41
2024-05-09T12:08:08.400Z,102010.16
2024-05-09T12:10:36.709Z,102003.63
2024-05-09T12:13:06.291Z,102001.00
2024-05-09T12:15:37.750Z,102002.88
2024-05-09T12:18:09.096Z,102003.97
2024-05-09T12:20:39.114Z,102013.25
2024-05-09T12:23:09.907Z,102000.03
2024-05-09T12:25:40.565Z,102002.09
2024-05-09T12:28:08.672Z,102003.16
2024-05-09T12:30:40.049Z,101995.28
2024-05-09T12:33:09.871Z,102004.47
2024-05-09T12:35:37.627Z,101992.78
2024-05-09T12:38:04.893Z,101998.03
2024-05-09T12:40:36.745Z,101992.50
2024-05-09T12:43:07.915Z,101993.09
2024-05-09T12:45:35.832Z,101994.88
2024-05-09T12:48:04.587Z,101987.59
2024-05-09T12:50:33.902Z,101989.47
2024-05-09T12:53:03.188Z,101987.72
2024-05-09T12:55:37.731Z,101981.53
2024-05-09T12:58:12.091Z,101979.78
2024-05-09T13:00:39.446Z,101974.19
2024-05-09T13:03:07.051Z,101970.22
2024-05-09T13:05:34.168Z,101960.69
2024-05-09T13:08:01.961Z,101958.31
2024-05-09T13:10:32.453Z,101963.09
2024-05-09T13:13:01.439Z,101953.47
2024-05-09T13:15:30.770Z,101959.31
2024-05-09T13:18:01.621Z,101944.53
2024-05-09T13:20:33.718Z,101949.53
2024-05-09T13:23:04.890Z,101953.16
2024-05-09T13:25:34.214Z,101948.75
2024-05-09T13:28:01.300Z,101939.72
2024-05-09T13:30:37.325Z,101948.56
2024-05-09T13:33:07.646Z,101939.25
2024-05-09T13:35:35.819Z,101938.78
2024-05-09T13:38:04.495Z,101929.38
2024-05-09T13:40:34.825Z,101930.84
2024-05-09T13:43:06.676Z,101927.81
2024-05-09T13:45:35.120Z,101922.13
2024-05-09T13:48:03.709Z,101927.13
2024-05-09T13:50:34.980Z,101916.00
2024-05-09T13:53:06.423Z,101914.69
2024-05-09T13:55:35.057Z,101901.59
2024-05-09T13:58:02.562Z,101897.59
2024-05-09T14:00:42.609Z,101906.16
2024-05-09T14:03:14.816Z,101899.47
2024-05-09T14:05:42.297Z,101901.25
2024-05-09T14:08:09.552Z,101905.50
2024-05-09T14:10:43.204Z,101898.06
2024-05-09T14:13:10.441Z,101899.69
2024-05-09T14:15:37.723Z,101897.13
2024-05-09T14:18:05.395Z,101890.13
2024-05-09T14:20:32.821Z,101895.88
2024-05-09T14:23:00.965Z,101890.50
2024-05-09T14:25:30.413Z,101891.28
2024-05-09T14:27:58.146Z,101885.72
2024-05-09T14:30:34.173Z,101882.97
2024-05-09T14:33:05.862Z,101885.03
2024-05-09T14:35:33.733Z,101879.94
2024-05-09T14:38:00.789Z,101872.13
2024-05-09T14:40:37.267Z,101875.28
2024-05-09T14:43:10.792Z,101880.16
2024-05-09T14:45:37.962Z,101868.78
2024-05-09T14:48:06.369Z,101871.84
2024-05-09T14:50:37.392Z,101870.13
2024-05-09T14:53:07.814Z,101871.09
2024-05-09T14:55:37.226Z,101860.38
2024-05-09T14:58:10.033Z,101857.75
2024-05-09T15:00:44.641Z,101843.22
2024-05-09T15:03:15.302Z,101849.53
2024-05-09T15:05:42.339Z,101839.53
2024-05-09T15:08:09.457Z,101847.53
2024-05-09T15:10:37.873Z,101849.25
2024-05-09T15:13:07.320Z,101850.03
2024-05-09T15:15:35.996Z,101850.03
2024-05-09T15:18:05.155Z,101844.69
2024-05-09T15:20:36.083Z,101832.03
2024-05-09T15:23:06.207Z,101834.72
2024-05-09T15:25:34.398Z,101835.56
2024-05-09T15:28:01.599Z,101833.78
2024-05-09T15:30:32.065Z,101830.28
2024-05-09T15:33:03.840Z,101826.75
2024-05-09T15:35:31.436Z,101828.75
2024-05-09T15:37:58.500Z,101827.13
2024-05-09T15:40:35.541Z,101829.88
2024-05-09T15:43:07.616Z,101831.03
2024-05-09T15:45:35.424Z,101820.44
2024-05-09T15:48:03.431Z,101823.19
2024-05-09T15:50:37.572Z,101824.06
2024-05-09T15:53:09.579Z,101820.56
2024-05-09T15:55:37.592Z,101823.38
2024-05-09T15:58:05.504Z,101818.03
2024-05-09T16:00:37.984Z,101824.22
2024-05-09T16:03:13.359Z,101812.31
2024-05-09T16:05:43.642Z,101816.72
2024-05-09T16:08:12.343Z,101814.00
2024-05-09T16:10:45.853Z,101813.16
2024-05-09T16:13:14.188Z,101811.59
2024-05-09T16:15:42.540Z,101807.97
2024-05-09T16:18:09.664Z,101802.56
2024-05-09T16:20:40.360Z,101798.06
2024-05-09T16:23:09.838Z,101800.66
2024-05-09T16:25:37.217Z,101800.66
2024-05-09T16:28:08.778Z,101805.25
2024-05-09T16:30:40.665Z,101793.53
2024-05-09T16:33:08.716Z,101795.50
2024-05-09T16:35:37.067Z,101798.25
2024-05-09T16:38:04.428Z,101797.38
2024-05-09T16:40:38.012Z,101795.50
2024-05-09T16:43:08.947Z,101791.84
2024-05-09T16:45:37.035Z,101795.50
2024-05-09T16:48:04.767Z,101803.63
2024-05-09T16:50:34.626Z,101801.81
2024-05-09T16:53:04.734Z,101797.31
2024-05-09T16:55:32.487Z,101799.16
2024-05-09T16:57:59.582Z,101802.78
2024-05-09T17:00:36.392Z,101792.94
2024-05-09T17:03:10.318Z,101790.28
2024-05-09T17:05:38.714Z,101794.84
2024-05-09T17:08:06.516Z,101796.75
2024-05-09T17:10:35.198Z,101795.97
2024-05-09T17:13:04.564Z,101799.59
2024-05-09T17:15:33.272Z,101796.19
2024-05-09T17:18:01.423Z,101790.91
2024-05-09T17:20:33.464Z,101791.91
2024-05-09T17:23:05.076Z,101792.03
2024-05-09T17:25:32.874Z,101795.72
2024-05-09T17:28:06.081Z,101784.09
2024-05-09T17:30:37.007Z,101801.31
2024-05-09T17:33:08.002Z,101788.78
2024-05-09T17:35:36.406Z,101791.63
2024-05-09T17:38:04.742Z,101795.41
2024-05-09T17:40:35.530Z,101794.59
2024-05-09T17:43:05.392Z,101799.25
2024-05-09T17:45:33.227Z,101787.69
2024-05-09T17:48:00.986Z,101785.00
2024-05-09T17:50:35.034Z,101792.41
2024-05-09T17:53:07.023Z,101788.03
2024-05-09T17:55:34.414Z,101784.56
2024-05-09T17:58:01.978Z,101786.50
2024-05-09T18:00:37.276Z,101788.41
2024-05-09T18:03:08.758Z,101795.81
2024-05-09T18:05:36.949Z,101785.16
2024-05-09T18:08:08.333Z,101789.78
2024-05-09T18:10:39.975Z,101792.63
2024-05-09T18:13:09.042Z,101788.38
2024-05-09T18:15:36.549Z,101796.56
2024-05-09T18:18:04.617Z,101792.22
2024-05-09T18:20:40.489Z,101794.09
2024-05-09T18:23:16.926Z,101796.00
2024-05-09T18:25:45.628Z,101798.00
2024-05-09T18:28:13.014Z,101800.81
2024-05-09T18:30:41.047Z,101799.16
2024-05-09T18:33:11.241Z,101795.72
2024-05-09T18:35:38.902Z,101801.25
2024-05-09T18:38:06.067Z,101794.19
2024-05-09T18:40:36.368Z,101799.69
2024-05-09T18:43:07.618Z,101804.28
2024-05-09T18:45:37.518Z,101804.41
2024-05-09T18:48:06.347Z,101812.66
2024-05-09T18:50:37.711Z,101810.09
2024-05-09T18:53:07.419Z,101806.66
2024-05-09T18:55:34.797Z,101815.78
2024-05-09T18:58:01.828Z,101812.34
2024-05-09T19:00:35.410Z,101816.97
2024-05-09T19:03:09.447Z,101825.19
2024-05-09T19:05:39.030Z,101819.97
2024-05-09T19:08:07.350Z,101819.25
2024-05-09T19:10:35.777Z,101822.09
2024-05-09T19:13:08.466Z,101824.03
2024-05-09T19:15:42.876Z,101830.44
2024-05-09T19:18:13.259Z,101835.06
2024-05-09T19:20:41.234Z,101828.91
2024-05-09T19:23:08.241Z,101831.69
2024-05-09T19:25:36.162Z,101837.06
2024-05-09T19:28:04.549Z,101835.59
2024-05-09T19:30:38.721Z,101837.53
2024-05-09T19:33:09.859Z,101841.25
2024-05-09T19:35:37.884Z,101837.81
2024-05-09T19:38:05.246Z,101843.28
2024-05-09T19:40:34.082Z,101849.75
2024-05-09T19:43:03.146Z,101844.44
2024-05-09T19:45:32.213Z,101838.22
2024-05-09T19:47:59.443Z,101846.38
2024-05-09T19:50:32.877Z,101850.03
2024-05-09T19:53:08.330Z,101851.97
2024-05-09T19:55:35.458Z,101852.06
2024-05-09T19:58:05.293Z,101847.72
2024-05-09T20:00:36.926Z,101850.50
2024-05-09T20:03:06.702Z,101851.53
2024-05-09T20:05:34.302Z,101850.75
2024-05-09T20:08:01.370Z,101849.94
2024-05-09T20:10:32.559Z,101848.31
2024-05-09T20:13:02.138Z,101848.38
2024-05-09T20:15:29.363Z,101848.47
2024-05-09T20:17:56.901Z,101852.16
2024-05-09T20:20:32.882Z,101851.38
2024-05-09T20:23:05.944Z,101852.38
2024-05-09T20:25:32.993Z,101852.53
2024-05-09T20:28:00.128Z,101853.50
2024-05-09T20:30:32.129Z,101840.16
2024-05-09T20:33:03.544Z,101851.06
2024-05-09T20:35:32.412Z,101863.75
2024-05-09T20:38:00.788Z,101857.59
2024-05-09T20:40:32.715Z,101862.16
2024-05-09T20:43:03.448Z,101859.59
2024-05-09T20:45:30.434Z,101856.13
2024-05-09T20:47:57.860Z,101859.81
2024-05-09T20:50:35.570Z,101860.84
2024-05-09T20:53:09.151Z,101861.00
2024-05-09T20:55:36.612Z,101869.19
2024-05-09T20:58:03.648Z,101871.09
2024-05-09T21:00:38.856Z,101869.31
2024-05-09T21:03:09.615Z,101866.72
2024-05-09T21:05:36.876Z,101870.41
2024-05-09T21:08:04.517Z,101872.28
2024-05-09T21:10:33.439Z,101875.91
2024-05-09T21:13:02.765Z,101870.59
2024-05-09T21:15:30.563Z,101865.25
2024-05-09T21:17:57.677Z,101871.59
2024-05-09T21:20:30.935Z,101873.41
2024-05-09T21:22:59.520Z,101868.03
2024-05-09T21:25:26.540Z,101866.25
2024-05-09T21:27:53.687Z,101870.78
2024-05-09T21:30:31.954Z,101872.59
2024-05-09T21:33:08.806Z,101865.50
2024-05-09T21:35:36.459Z,101863.72
2024-05-09T21:38:04.703Z,101861.94
2024-05-09T21:40:35.075Z,101858.44
2024-05-09T21:43:04.822Z,101854.88
2024-05-09T21:45:32.184Z,101862.09
2024-05-09T21:47:59.560Z,101857.63
2024-05-09T21:50:35.401Z,101855.00
2024-05-09T21:53:07.003Z,101855.97
2024-05-09T21:55:34.282Z,101853.28
2024-05-09T21:58:01.573Z,101863.22
2024-05-09T22:00:35.466Z,101857.84
2024-05-09T22:03:09.934Z,101853.44
2024-05-09T22:05:41.749Z,101849.88
2024-05-09T22:08:09.005Z,101858.00
2024-05-09T22:10:36.965Z,101851.75
2024-05-09T22:13:08.530Z,101848.19
2024-05-09T22:15:38.759Z,101854.47
2024-05-09T22:18:08.297Z,101850.06
2024-05-09T22:20:38.894Z,101854.56
2024-05-09T22:23:08.485Z,101859.13
2024-05-09T22:25:36.392Z,101858.25
2024-05-09T22:28:03.828Z,101864.59
2024-05-09T22:30:36.085Z,101868.25
2024-05-09T22:33:11.201Z,101868.28
2024-05-09T22:35:40.421Z,101862.97
2024-05-09T22:38:07.794Z,101863.03
2024-05-09T22:40:45.430Z,101870.22
2024-05-09T22:43:24.198Z,101857.69
2024-05-09T22:45:54.251Z,101865.81
2024-05-09T22:48:21.902Z,101864.09
2024-05-09T22:50:49.051Z,101865.91
2024-05-09T22:53:16.013Z,101862.38
2024-05-09T22:55:42.965Z,101858.84
2024-05-09T22:58:10.046Z,101860.69
2024-05-09T23:00:37.215Z,101857.13
2024-05-09T23:03:04.334Z,101866.13
2024-05-09T23:05:32.480Z,101859.00
2024-05-09T23:08:01.859Z,101863.50
2024-05-09T23:10:35.548Z,101859.97
2024-05-09T23:13:05.883Z,101859.09
2024-05-09T23:15:33.061Z,101862.69
2024-05-09T23:18:00.164Z,101852.00
2024-05-09T23:20:36.037Z,101852.03
2024-05-09T23:23:07.254Z,101864.63
2024-05-09T23:25:34.599Z,101861.94
2024-05-09T23:28:01.765Z,101864.72
2024-05-09T23:30:36.515Z,101855.84
2024-05-09T23:33:07.995Z,101854.97
2024-05-09T23:35:35.267Z,101858.59
2024-05-09T23:38:02.246Z,101846.06
2024-05-09T23:42:59.153Z,101854.19
2024-05-09T23:45:26.138Z,101852.44
2024-05-09T23:47:55.024Z,101846.22
2024-05-09T23:50:30.235Z,101840.03
2024-05-09T23:53:00.858Z,101837.44
2024-05-09T23:55:28.390Z,101837.44
2024-05-09T23:57:55.453Z,101841.97
